createdAt,value
2023-03-30T00:01:15.202Z,94.04
2023-03-30T00:05:19.696Z,94.78
2023-03-30T00:09:23.086Z,95.52
2023-03-30T00:13:25.963Z,92.30
2023-03-30T00:17:28.780Z,95.06
2023-03-30T00:21:33.531Z,96.50
2023-03-30T00:25:36.488Z,94.46
2023-03-30T00:29:39.192Z,94.33
2023-03-30T00:33:46.545Z,95.31
2023-03-30T00:37:51.465Z,94.91
2023-03-30T00:41:54.293Z,94.99
2023-03-30T00:45:58.000Z,95.45
2023-03-30T00:50:01.101Z,94.75
2023-03-30T00:54:08.444Z,95.48
2023-03-30T00:58:11.785Z,95.21
2023-03-30T01:02:14.807Z,94.60
2023-03-30T01:06:21.946Z,96.89
2023-03-30T01:10:26.654Z,95.46
2023-03-30T01:14:29.470Z,96.80
2023-03-30T01:18:40.253Z,95.86
2023-03-30T01:23:02.196Z,95.11
2023-03-30T01:27:13.041Z,95.52
2023-03-30T01:31:45.845Z,96.10
2023-03-30T01:36:14.434Z,95.16
2023-03-30T01:40:22.675Z,96.55
2023-03-30T01:44:31.711Z,97.00
2023-03-30T01:48:45.475Z,95.99
2023-03-30T01:52:54.290Z,95.10
2023-03-30T01:57:00.897Z,96.27
2023-03-30T02:01:05.084Z,96.23
2023-03-30T02:05:10.418Z,95.49
2023-03-30T02:09:16.197Z,96.24
2023-03-30T02:13:21.013Z,96.86
2023-03-30T02:17:25.159Z,97.61
2023-03-30T02:21:28.113Z,96.22
2023-03-30T02:25:30.812Z,94.61
2023-03-30T02:29:36.573Z,96.01
2023-03-30T02:33:46.996Z,93.98
2023-03-30T02:38:10.194Z,94.26
2023-03-30T02:42:34.176Z,97.95
2023-03-30T02:46:52.007Z,97.41
2023-03-30T02:50:59.808Z,95.96
2023-03-30T02:55:11.785Z,96.41
2023-03-30T02:59:20.931Z,97.25
2023-03-30T03:03:28.698Z,96.20
2023-03-30T03:07:33.866Z,94.53
2023-03-30T03:11:36.746Z,96.21
2023-03-30T03:15:40.085Z,95.91
2023-03-30T03:19:44.183Z,95.65
2023-03-30T03:23:48.555Z,95.27
2023-03-30T03:27:51.250Z,93.80
2023-03-30T03:31:54.025Z,97.13
2023-03-30T03:36:00.184Z,96.66
2023-03-30T03:40:03.203Z,94.77
2023-03-30T03:44:06.320Z,96.70
2023-03-30T03:48:10.138Z,97.13
2023-03-30T03:52:14.451Z,96.40
2023-03-30T03:56:17.327Z,96.39
2023-03-30T04:00:20.975Z,97.32
2023-03-30T04:04:24.074Z,96.73
2023-03-30T04:08:28.628Z,97.67
2023-03-30T04:12:31.735Z,96.87
2023-03-30T04:16:34.605Z,97.37
2023-03-30T04:20:37.560Z,98.61
2023-03-30T04:24:42.762Z,98.34
2023-03-30T04:28:46.863Z,99.95
2023-03-30T04:33:02.388Z,98.83
2023-03-30T04:37:06.962Z,98.75
2023-03-30T04:41:14.170Z,99.37
2023-03-30T04:45:18.306Z,99.24
2023-03-30T04:49:21.350Z,99.94
2023-03-30T04:53:24.276Z,100.00
2023-03-30T04:57:28.672Z,100.00
2023-03-30T05:01:31.877Z,99.71
2023-03-30T05:05:35.111Z,100.00
2023-03-30T05:09:38.397Z,99.84
2023-03-30T05:13:42.860Z,99.82
2023-03-30T05:17:45.734Z,99.61
2023-03-30T05:21:48.599Z,99.63
2023-03-30T05:25:51.399Z,99.73
2023-03-30T05:29:55.756Z,99.25
2023-03-30T05:33:59.104Z,100.00
2023-03-30T05:38:02.008Z,100.00
2023-03-30T05:42:05.923Z,100.00
2023-03-30T05:46:10.688Z,98.55
2023-03-30T05:50:13.651Z,99.16
2023-03-30T05:54:16.392Z,99.18
2023-03-30T05:58:20.449Z,98.62
2023-03-30T06:02:24.930Z,98.97
2023-03-30T06:06:28.696Z,99.57
2023-03-30T06:10:32.288Z,100.00
2023-03-30T06:14:35.109Z,100.00
2023-03-30T06:18:39.599Z,99.83
2023-03-30T06:22:43.382Z,100.00
2023-03-30T06:26:46.499Z,100.00
2023-03-30T06:30:49.821Z,100.00
2023-03-30T06:34:54.524Z,99.77
2023-03-30T06:38:57.475Z,100.00
2023-03-30T06:43:01.133Z,100.00
2023-03-30T06:47:05.520Z,98.88
2023-03-30T06:51:10.320Z,98.83
2023-03-30T06:55:13.941Z,99.21
2023-03-30T06:59:16.796Z,98.40
2023-03-30T07:03:20.286Z,97.98
2023-03-30T07:07:24.495Z,97.84
2023-03-30T07:11:28.153Z,96.44
2023-03-30T07:15:30.993Z,97.50
2023-03-30T07:19:34.486Z,97.32
2023-03-30T07:23:39.088Z,93.45
2023-03-30T07:27:42.172Z,95.34
2023-03-30T07:31:45.269Z,96.68
2023-03-30T07:35:50.257Z,96.67
2023-03-30T07:39:54.716Z,96.21
2023-03-30T07:43:57.832Z,95.74
2023-03-30T07:48:01.042Z,96.39
2023-03-30T07:52:03.945Z,94.78
2023-03-30T07:56:08.849Z,94.62
2023-03-30T08:00:14.669Z,96.02
2023-03-30T08:04:17.935Z,96.06
2023-03-30T08:08:20.987Z,95.53
2023-03-30T08:12:25.914Z,95.60
2023-03-30T08:16:28.858Z,94.15
2023-03-30T08:20:32.094Z,94.50
2023-03-30T08:24:35.200Z,94.81
2023-03-30T08:28:39.819Z,94.81
2023-03-30T08:32:42.749Z,94.48
2023-03-30T08:36:45.677Z,93.11
2023-03-30T08:40:51.003Z,93.11
2023-03-30T08:44:57.040Z,92.45
2023-03-30T08:49:01.502Z,93.86
2023-03-30T08:53:05.203Z,93.02
2023-03-30T08:57:11.969Z,91.42
2023-03-30T09:01:20.737Z,92.03
2023-03-30T09:05:27.868Z,92.77
2023-03-30T09:09:32.726Z,91.05
2023-03-30T09:13:38.017Z,92.06
2023-03-30T09:17:44.908Z,90.86
2023-03-30T09:21:47.909Z,89.12
2023-03-30T09:25:53.568Z,87.53
2023-03-30T09:29:58.361Z,86.87
2023-03-30T09:34:08.534Z,85.96
2023-03-30T09:38:13.804Z,87.38
2023-03-30T09:42:23.290Z,86.99
2023-03-30T09:46:26.145Z,85.36
2023-03-30T09:50:30.712Z,85.60
2023-03-30T09:54:38.107Z,86.58
2023-03-30T09:58:41.925Z,86.45
2023-03-30T10:02:56.822Z,86.36
2023-03-30T10:07:09.799Z,83.35
2023-03-30T10:11:21.992Z,83.12
2023-03-30T10:15:31.175Z,82.28
2023-03-30T10:19:38.186Z,81.44
2023-03-30T10:23:45.697Z,81.20
2023-03-30T10:27:53.505Z,79.20
2023-03-30T10:32:00.224Z,78.86
2023-03-30T10:36:03.346Z,78.56
2023-03-30T10:40:16.375Z,79.48
2023-03-30T10:44:24.066Z,76.68
2023-03-30T10:48:36.434Z,71.17
2023-03-30T10:52:57.952Z,67.76
2023-03-30T10:57:09.883Z,70.20
2023-03-30T11:01:17.640Z,67.71
2023-03-30T11:05:23.248Z,63.95
2023-03-30T11:09:29.482Z,66.47
2023-03-30T11:13:36.217Z,66.58
2023-03-30T11:17:45.837Z,63.31
2023-03-30T11:21:56.992Z,62.80
2023-03-30T11:26:02.976Z,64.70
2023-03-30T11:30:12.579Z,63.15
2023-03-30T11:34:20.507Z,62.51
2023-03-30T11:38:27.368Z,60.84
2023-03-30T11:42:31.918Z,61.51
2023-03-30T11:46:42.105Z,64.58
2023-03-30T11:50:57.910Z,65.39
2023-03-30T11:55:19.829Z,65.87
2023-03-30T11:59:26.801Z,62.03
2023-03-30T12:03:41.132Z,62.08
2023-03-30T12:07:51.950Z,62.48
2023-03-30T12:12:04.843Z,61.14
2023-03-30T12:16:10.113Z,58.90
2023-03-30T12:20:22.319Z,58.42
2023-03-30T12:24:30.506Z,60.56
2023-03-30T12:29:11.270Z,60.09
2023-03-30T12:33:13.564Z,61.76
2023-03-30T12:37:21.281Z,62.04
2023-03-30T12:41:28.233Z,60.34
2023-03-30T12:45:33.439Z,62.60
2023-03-30T12:49:44.490Z,70.02
2023-03-30T12:53:58.846Z,73.76
2023-03-30T12:58:26.728Z,70.34
2023-03-30T13:02:40.381Z,65.94
2023-03-30T13:06:49.462Z,59.72
2023-03-30T13:11:07.720Z,61.43
2023-03-30T13:15:41.982Z,62.09
2023-03-30T13:19:49.604Z,59.91
2023-03-30T13:24:20.402Z,56.81
2023-03-30T13:28:49.359Z,58.76
2023-03-30T13:33:00.528Z,60.24
2023-03-30T13:37:13.210Z,58.92
2023-03-30T13:41:27.781Z,60.73
2023-03-30T13:45:48.607Z,58.44
2023-03-30T13:49:56.304Z,56.80
2023-03-30T13:54:01.102Z,56.71
2023-03-30T13:58:07.705Z,56.76
2023-03-30T14:02:15.530Z,56.72
2023-03-30T14:06:21.312Z,56.43
2023-03-30T14:10:24.558Z,56.52
2023-03-30T14:14:35.200Z,55.91
2023-03-30T14:18:39.341Z,56.97
2023-03-30T14:22:45.651Z,58.99
2023-03-30T14:26:50.295Z,60.68
2023-03-30T14:30:54.772Z,59.57
2023-03-30T14:34:58.850Z,63.17
2023-03-30T14:39:02.555Z,62.10
2023-03-30T14:43:06.172Z,62.90
2023-03-30T14:47:09.166Z,62.90
2023-03-30T14:51:26.572Z,64.40
2023-03-30T14:55:29.387Z,66.83
2023-03-30T14:59:34.395Z,71.66
2023-03-30T15:03:38.359Z,74.03
2023-03-30T15:07:42.564Z,78.08
2023-03-30T15:11:54.478Z,84.10
2023-03-30T15:15:57.264Z,84.14
2023-03-30T15:20:01.223Z,82.76
2023-03-30T15:24:08.289Z,83.46
2023-03-30T15:28:14.950Z,81.69
2023-03-30T15:32:20.033Z,82.94
2023-03-30T15:36:24.804Z,81.92
2023-03-30T15:40:42.973Z,84.02
2023-03-30T15:44:45.961Z,82.61
2023-03-30T15:48:50.305Z,87.10
2023-03-30T15:53:00.125Z,86.14
2023-03-30T15:57:06.283Z,84.98
2023-03-30T16:01:13.185Z,89.11
2023-03-30T16:05:19.401Z,88.55
2023-03-30T16:09:22.960Z,82.96
2023-03-30T16:13:27.137Z,83.31
2023-03-30T16:17:29.899Z,83.96
2023-03-30T16:21:32.726Z,83.90
2023-03-30T16:25:44.628Z,86.96
2023-03-30T16:29:49.573Z,92.05
2023-03-30T16:33:52.767Z,89.53
2023-03-30T16:37:55.522Z,86.51
2023-03-30T16:41:58.623Z,88.29
2023-03-30T16:46:02.812Z,90.78
2023-03-30T16:50:18.190Z,92.84
2023-03-30T16:54:31.229Z,95.20
2023-03-30T16:58:35.065Z,94.40
2023-03-30T17:02:39.538Z,94.23
2023-03-30T17:06:42.353Z,95.92
2023-03-30T17:10:45.302Z,94.73
2023-03-30T17:14:48.278Z,91.41
2023-03-30T17:18:52.741Z,91.99
2023-03-30T17:22:55.612Z,93.01
2023-03-30T17:26:59.474Z,93.06
2023-03-30T17:31:04.009Z,92.43
2023-03-30T17:35:10.602Z,93.57
2023-03-30T17:39:14.128Z,94.40
2023-03-30T17:43:16.983Z,94.91
2023-03-30T17:47:19.932Z,97.45
2023-03-30T17:51:23.966Z,97.98
2023-03-30T17:55:28.433Z,98.14
2023-03-30T17:59:31.388Z,97.64
2023-03-30T18:03:35.028Z,97.59
2023-03-30T18:07:39.560Z,98.59
2023-03-30T18:11:42.857Z,99.19
2023-03-30T18:15:49.248Z,98.10
2023-03-30T18:19:52.629Z,98.53
2023-03-30T18:23:56.958Z,98.43
2023-03-30T18:27:59.789Z,97.43
2023-03-30T18:32:02.798Z,95.80
2023-03-30T18:36:08.060Z,97.38
2023-03-30T18:40:32.098Z,96.50
2023-03-30T18:44:35.836Z,98.04
2023-03-30T18:48:38.846Z,97.16
2023-03-30T18:52:41.740Z,94.61
2023-03-30T18:56:47.813Z,94.84
2023-03-30T19:00:51.882Z,97.13
2023-03-30T19:04:55.836Z,97.16
2023-03-30T19:08:58.649Z,94.68
2023-03-30T19:13:02.913Z,94.71
2023-03-30T19:17:06.226Z,96.06
2023-03-30T19:21:10.687Z,96.39
2023-03-30T19:25:14.471Z,97.63
2023-03-30T19:29:18.567Z,95.22
2023-03-30T19:33:21.539Z,96.32
2023-03-30T19:37:24.367Z,96.40
2023-03-30T19:41:27.556Z,96.59
2023-03-30T19:45:31.848Z,97.64
2023-03-30T19:49:34.610Z,97.28
2023-03-30T19:53:37.397Z,97.88
2023-03-30T19:57:40.098Z,99.27
2023-03-30T20:01:44.293Z,97.72
2023-03-30T20:05:51.012Z,98.58
2023-03-30T20:09:54.123Z,97.67
2023-03-30T20:13:56.923Z,95.31
2023-03-30T20:18:01.047Z,98.22
2023-03-30T20:22:04.101Z,96.91
2023-03-30T20:26:06.904Z,98.33
2023-03-30T20:30:11.698Z,98.99
2023-03-30T20:34:16.760Z,95.64
2023-03-30T20:38:19.790Z,96.16
2023-03-30T20:42:26.387Z,97.82
2023-03-30T20:46:35.476Z,97.54
2023-03-30T20:50:39.892Z,96.67
2023-03-30T20:54:42.699Z,97.19
2023-03-30T20:58:45.539Z,98.05
2023-03-30T21:02:48.303Z,98.49
2023-03-30T21:06:52.473Z,98.59
2023-03-30T21:10:55.487Z,99.40
2023-03-30T21:14:58.246Z,98.56
2023-03-30T21:19:01.073Z,98.78
2023-03-30T21:23:05.462Z,98.08
2023-03-30T21:27:08.226Z,98.52
2023-03-30T21:31:16.428Z,99.44
2023-03-30T21:35:19.202Z,99.04
2023-03-30T21:39:23.789Z,97.83
2023-03-30T21:43:27.683Z,96.72
2023-03-30T21:47:31.299Z,98.18
2023-03-30T21:51:34.571Z,99.83
2023-03-30T21:55:38.629Z,99.11
2023-03-30T21:59:41.483Z,99.48
2023-03-30T22:03:46.195Z,99.02
2023-03-30T22:07:51.541Z,99.92
2023-03-30T22:11:55.877Z,100.00
2023-03-30T22:15:59.209Z,100.00
2023-03-30T22:20:02.120Z,100.00
2023-03-30T22:24:06.959Z,99.83
2023-03-30T22:28:12.034Z,99.88
2023-03-30T22:32:15.133Z,99.18
2023-03-30T22:36:20.525Z,99.64
2023-03-30T22:40:23.183Z,100.00
2023-03-30T22:44:27.321Z,100.00
2023-03-30T22:48:30.347Z,100.00
2023-03-30T22:52:33.636Z,100.00
2023-03-30T22:56:36.271Z,100.00
2023-03-30T23:00:40.361Z,99.81
2023-03-30T23:04:44.120Z,99.35
2023-03-30T23:08:48.439Z,99.38
2023-03-30T23:12:51.484Z,99.45
2023-03-30T23:16:57.661Z,100.00
2023-03-30T23:21:06.113Z,100.00
2023-03-30T23:25:10.198Z,100.00
2023-03-30T23:29:13.224Z,100.00
2023-03-30T23:33:17.348Z,100.00
2023-03-30T23:37:21.930Z,100.00
2023-03-30T23:41:24.651Z,98.42
2023-03-30T23:45:27.382Z,94.56
2023-03-30T23:49:31.462Z,94.75
2023-03-30T23:53:34.141Z,94.53
2023-03-30T23:57:36.958Z,95.63
